Flight Track Log - Related Links

Times and Time Zones

All times are in EDT time to prevent confusion due to time zone crossing. See the AAY974 flight status page for this flight to view local times or setup timezone preferences in your user account.

Time Position Orientation Groundspeed Altitude Reporting Facility
EDT Latitude Longitude Course Direction KTS MPH feet Rate Location/Type
Fri 07:21:41 AM 27.0003 -81.9406 355° North 210 242 3,300  Level Miami Center
Fri 07:22:41 AM 27.0694 -81.9392 North 217 250 5,100 2,300 Climbing Miami Center
Fri 07:23:41 AM 27.1461 -81.9494 353° North 245 282 7,900 2,700 Climbing Miami Center
Fri 07:24:41 AM 27.2253 -81.9553 356° North 268 308 10,500 1,800 Climbing Miami Center
Fri 07:25:41 AM 27.3128 -81.9636 355° North 294 338 11,500 1,250 Climbing Miami Center
Fri 07:26:00 AM 27.4643 -82.0484 355° North  Level Estimated
Fri 07:26:41 AM 27.4169 -81.9683 358° North 335 386 13,000  Level Miami Center
Fri 07:28:46 AM 27.6419 -81.9839 356° North 387 445 17,000 1,861 Climbing Jacksonville Center
Fri 07:30:46 AM 27.8986 -82.0025 356° North 429 494 20,600 1,633 Climbing Jacksonville Center
Fri 07:31:46 AM 28.0158 -82.0464 342° North 440 506 21,900 1,300 Climbing Jacksonville Center
Fri 07:32:46 AM 28.1103 -82.1372 320° Northwest 427 491 23,200 1,300 Climbing Jacksonville Center
Fri 07:33:46 AM 28.2192 -82.2189 327° Northwest 448 516 24,500 1,600 Climbing Jacksonville Center
Fri 07:34:46 AM 28.3197 -82.3125 321° Northwest 466 536 26,400 2,050 Climbing Jacksonville Center
Fri 07:35:46 AM 28.4139 -82.3922 323° Northwest 455 524 28,600 1,600 Climbing Jacksonville Center
Fri 07:36:46 AM 28.5289 -82.4200 348° North 427 491 29,600 1,100 Climbing Jacksonville Center
Fri 07:37:46 AM 28.6417 -82.4478 348° North 413 475 30,800 1,150 Climbing Jacksonville Center
Fri 07:38:46 AM 28.7522 -82.4664 352° North 407 468 31,900 550 Climbing Jacksonville Center
Fri 07:39:46 AM 28.8631 -82.4919 349° North 407 468 31,900  Level Jacksonville Center
Fri 07:40:46 AM 28.9717 -82.5106 351° North 402 463 31,900  Level Jacksonville Center
Fri 07:41:46 AM 29.0803 -82.5386 347° North 397 457 31,900  Level Jacksonville Center
Fri 07:42:46 AM 29.1908 -82.5547 353° North 392 451 31,900  Level Jacksonville Center
Fri 07:43:46 AM 29.2953 -82.5806 348° North 392 451 31,900  Level Jacksonville Center
Fri 07:44:46 AM 29.4081 -82.5994 352° North 392 451 31,900 300 Level Jacksonville Center
Fri 07:45:46 AM 29.5167 -82.5967 North 387 445 32,500 500 Climbing Jacksonville Center
Fri 07:46:46 AM 29.6294 -82.5986 359° North 387 445 32,900 200 Climbing Jacksonville Center
Fri 07:47:46 AM 29.7381 -82.6128 354° North 387 445 32,900  Level Jacksonville Center
Fri 07:48:46 AM 29.8508 -82.6219 356° North 392 451 32,900  Level Jacksonville Center
Fri 07:49:46 AM 29.9719 -82.6528 348° North 397 457 32,900  Level Jacksonville Center
Fri 07:50:46 AM 30.0722 -82.6597 357° North 400 460 32,900  Level Jacksonville Center
Fri 07:51:46 AM 30.1808 -82.6811 350° North 400 460 32,900  Level Jacksonville Center
Fri 07:52:46 AM 30.2894 -82.6953 354° North 395 455 32,900  Level Jacksonville Center
Fri 07:53:46 AM 30.4022 -82.7192 350° North 395 455 32,900  Level Jacksonville Center
Fri 07:54:46 AM 30.5108 -82.7311 355° North 389 448 32,900  Level Jacksonville Center
Fri 07:55:46 AM 30.6256 -82.7597 348° North 389 448 32,900  Level Jacksonville Center
Fri 07:56:46 AM 30.7361 -82.7742 354° North 389 448 32,900  Level Jacksonville Center
Fri 07:57:46 AM 30.8469 -82.7958 350° North 389 448 32,900  Level Jacksonville Center
Fri 07:58:46 AM 30.9556 -82.8103 353° North 389 448 32,900  Level Jacksonville Center
Fri 07:59:46 AM 31.0642 -82.8344 349° North 389 448 32,900 50 Level Jacksonville Center
Fri 08:00:46 AM 31.1622 -82.8439 355° North 389 448 33,000 50 Climbing Jacksonville Center
Fri 08:01:46 AM 31.2478 -82.8586 352° North 389 448 33,000  Level Jacksonville Center
Fri 08:03:20 AM 31.4428 -82.8900 352° North 404 465 33,000  Level Atlanta Center
Fri 08:04:20 AM 31.5453 -82.9106 350° North 404 465 33,000  Level Atlanta Center
Fri 08:05:20 AM 31.6561 -82.9239 354° North 399 459 33,000  Level Atlanta Center
Fri 08:06:20 AM 31.7628 -82.9494 348° North 393 452 33,000  Level Atlanta Center
Fri 08:07:20 AM 31.8714 -82.9603 355° North 387 445 33,000  Level Atlanta Center
Fri 08:08:20 AM 31.9800 -82.9861 349° North 387 445 33,000  Level Atlanta Center
Fri 08:09:20 AM 32.0867 -82.9969 355° North 387 445 33,000  Level Atlanta Center
Fri 08:10:20 AM 32.1933 -83.0203 350° North 387 445 33,000  Level Atlanta Center
Fri 08:11:20 AM 32.3019 -83.0364 353° North 387 445 33,000  Level Atlanta Center
Fri 08:12:20 AM 32.4064 -83.0597 349° North 392 451 33,000  Level Atlanta Center
Fri 08:13:20 AM 32.5131 -83.0733 354° North 387 445 33,000  Level Atlanta Center
Fri 08:14:20 AM 32.6217 -83.0942 351° North 387 445 33,000 -150 Level Atlanta Center
Fri 08:15:20 AM 32.7283 -83.1128 352° North 392 451 32,700 -500 Descending Atlanta Center
Fri 08:16:20 AM 32.8411 -83.1364 350° North 386 444 32,000 -350 Descending Atlanta Center
Fri 08:17:20 AM 32.9478 -83.1550 352° North 386 444 32,000  Level Atlanta Center
Fri 08:18:20 AM 33.0544 -83.1764 350° North 386 444 32,000  Level Atlanta Center
Fri 08:19:20 AM 33.1653 -83.1975 351° North 391 450 32,000  Level Atlanta Center
Fri 08:20:20 AM 33.2697 -83.2189 350° North 391 450 32,000  Level Atlanta Center
Fri 08:21:20 AM 33.3761 -83.2378 352° North 391 450 32,000  Level Atlanta Center
Fri 08:22:20 AM 33.4828 -83.2567 352° North 391 450 32,000  Level Atlanta Center
Fri 08:23:20 AM 33.5894 -83.2783 350° North 391 450 32,000  Level Atlanta Center
Fri 08:24:20 AM 33.6961 -83.2972 352° North 391 450 32,000  Level Atlanta Center
Fri 08:25:20 AM 33.8025 -83.3164 351° North 386 444 32,000  Level Atlanta Center
Fri 08:26:20 AM 33.8778 -83.3308 351° North 392 451 32,000  Level Atlanta Center
Fri 08:27:20 AM 34.0053 -83.3572 350° North 392 451 32,000  Level Atlanta Center
Fri 08:28:20 AM 34.1117 -83.3764 352° North 385 443 32,000  Level Atlanta Center
Fri 08:29:20 AM 34.2142 -83.3983 350° North 385 443 32,000  Level Atlanta Center
Fri 08:30:20 AM 34.3206 -83.4125 354° North 385 443 32,000  Level Atlanta Center
Fri 08:31:20 AM 34.4272 -83.4394 348° North 390 449 32,000  Level Atlanta Center
Fri 08:32:20 AM 34.5358 -83.4564 353° North 390 449 32,000  Level Atlanta Center
Fri 08:33:20 AM 34.6403 -83.4783 350° North 390 449 32,000  Level Atlanta Center
Fri 08:34:20 AM 34.7511 -83.4978 352° North 390 449 32,000  Level Atlanta Center
Fri 08:35:20 AM 34.8533 -83.5275 347° North 390 449 32,000  Level Atlanta Center
Fri 08:36:20 AM 34.9578 -83.5444 352° North 390 449 32,000  Level Atlanta Center
Fri 08:37:20 AM 35.0622 -83.5667 350° North 385 443 32,000  Level Atlanta Center
Fri 08:38:20 AM 35.1686 -83.5839 352° North 385 443 32,000  Level Atlanta Center
Fri 08:39:20 AM 35.2711 -83.6089 349° North 385 443 32,000  Level Atlanta Center
Fri 08:40:20 AM 35.3756 -83.6286 351° North 380 437 32,000  Level Atlanta Center
Fri 08:41:20 AM 35.4778 -83.6486 351° North 375 432 32,000  Level Atlanta Center
Fri 08:42:20 AM 35.5822 -83.6686 351° North 375 432 32,000  Level Atlanta Center
Fri 08:43:20 AM 35.6864 -83.6883 351° North 375 432 32,000  Level Atlanta Center
Fri 08:44:20 AM 35.7783 -83.7469 333° Northwest 370 426 32,000  Level Atlanta Center
Fri 08:45:20 AM 35.8642 -83.8208 325° Northwest 370 426 32,000  Level Atlanta Center
Fri 08:46:20 AM 35.9561 -83.8875 330° Northwest 370 426 32,000  Level Atlanta Center
Fri 08:48:09 AM 36.1403 -83.9253 351° North 381 438 32,000  Level Indianapolis Center
Fri 08:49:11 AM 36.2431 -83.9489 350° North 378 435 32,000  Level Indianapolis Center
Fri 08:50:13 AM 36.3669 -83.9631 355° North 375 432 32,000  Level Indianapolis Center
Fri 08:51:14 AM 36.4708 -83.9822 352° North 376 433 32,000  Level Indianapolis Center
Fri 08:52:16 AM 36.5719 -83.9919 356° North 377 434 32,000  Level Indianapolis Center
Fri 08:53:18 AM 36.6736 -84.0136 350° North 370 426 32,000  Level Indianapolis Center
Fri 08:54:20 AM 36.7772 -84.0214 357° North 369 425 32,000  Level Indianapolis Center
Fri 08:55:22 AM 36.8983 -84.0286 357° North 380 437 32,000  Level Indianapolis Center
Fri 08:56:24 AM 37.0044 -84.0169 North 381 438 32,000  Level Indianapolis Center
Fri 08:57:25 AM 37.1092 -84.0139 North 381 438 32,000  Level Indianapolis Center
Fri 08:58:27 AM 37.2139 -83.9981 North 377 434 32,000  Level Indianapolis Center
Fri 08:59:29 AM 37.3169 -83.9967 North 371 427 32,000  Level Indianapolis Center
Fri 09:00:31 AM 37.4228 -83.9792 North 379 436 32,000  Level Indianapolis Center
Fri 09:01:33 AM 37.5258 -83.9792 360° North 371 427 32,000  Level Indianapolis Center
Fri 09:02:35 AM 37.6481 -83.9625 North 373 429 32,000  Level Indianapolis Center
Fri 09:03:37 AM 37.7503 -83.9608 North 370 426 32,000  Level Indianapolis Center
Fri 09:04:39 AM 37.8522 -83.9453 North 368 423 32,000  Level Indianapolis Center
Fri 09:05:40 AM 37.9522 -83.9442 North 361 415 32,000  Level Indianapolis Center
Fri 09:06:42 AM 38.0511 -83.9286 North 358 412 32,000  Level Indianapolis Center
Fri 09:07:44 AM 38.1528 -83.9253 North 365 420 32,000  Level Indianapolis Center
Fri 09:08:46 AM 38.2706 -83.9092 North 366 421 32,000  Level Indianapolis Center
Fri 09:09:48 AM 38.3681 -83.9103 359° North 351 404 32,000  Level Indianapolis Center
Fri 09:10:50 AM 38.4683 -83.8939 North 359 413 32,000  Level Indianapolis Center
Fri 09:11:52 AM 38.5669 -83.8917 North 354 407 32,000 -48 Level Indianapolis Center
Fri 09:12:54 AM 38.6764 -83.8775 North 362 417 31,900 -48 Descending Indianapolis Center
Fri 09:13:56 AM 38.7750 -83.8753 North 352 405 31,900  Level Indianapolis Center
Fri 09:14:58 AM 38.8764 -83.8606 North 360 414 31,900  Level Indianapolis Center
Fri 09:16:00 AM 38.9764 -83.8583 North 356 410 31,900  Level Indianapolis Center
Fri 09:17:02 AM 39.0769 -83.8450 North 358 412 31,900  Level Indianapolis Center
Fri 09:18:04 AM 39.1753 -83.8369 North 352 405 31,900  Level Indianapolis Center
Fri 09:19:06 AM 39.2750 -83.8253 North 354 407 31,900 -435 Level Indianapolis Center
Fri 09:20:08 AM 39.3900 -83.8233 North 351 404 31,000 -2,419 Descending Indianapolis Center
Fri 09:21:10 AM 39.4897 -83.8083 North 356 410 26,900 -2,806 Descending Indianapolis Center
Fri 09:22:12 AM 39.5975 -83.8075 360° North 376 433 25,200 -968 Descending Indianapolis Center
Fri 09:23:14 AM 39.6950 -83.7861 10° North 353 406 24,900 -97 Descending Indianapolis Center
Fri 09:24:16 AM 39.7933 -83.7531 14° North 357 411 25,000 48 Climbing Indianapolis Center
Fri 09:25:18 AM 39.8936 -83.7447 North 354 407 25,000 -242 Level Indianapolis Center
Fri 09:26:20 AM 39.9936 -83.7442 360° North 351 404 24,500 -484 Descending Indianapolis Center
Fri 09:27:22 AM 40.0908 -83.7328 North 345 397 24,000 -290 Descending Indianapolis Center
Fri 09:28:24 AM 40.1869 -83.7303 North 341 392 23,900 -435 Descending Indianapolis Center
Fri 09:29:26 AM 40.2825 -83.7172 North 340 391 23,100 -1,306 Descending Indianapolis Center
Fri 09:30:28 AM 40.3892 -83.7178 360° North 326 375 21,200 -2,081 Descending Indianapolis Center
Fri 09:31:30 AM 40.4775 -83.7025 North 317 365 18,800 -2,032 Descending Indianapolis Center
Fri 09:32:32 AM 40.5661 -83.7042 359° North 315 362 17,000 -871 Descending Indianapolis Center
Fri 09:33:34 AM 40.6581 -83.6911 North 328 377 17,000  Level Indianapolis Center
Fri 09:34:36 AM 40.7492 -83.6917 360° North 324 373 17,000 -480 Level Indianapolis Center
Fri 09:35:39 AM 40.8400 -83.6781 North 326 375 16,000 -1,632 Descending Indianapolis Center
Fri 09:36:41 AM 40.9289 -83.6775 360° North 318 366 13,600 -2,032 Descending Indianapolis Center
Fri 09:37:43 AM 41.0181 -83.6708 North 317 365 11,800 -1,403 Descending Indianapolis Center
Fri 09:38:45 AM 41.1036 -83.7050 343° North 280 322 10,700 -1,286 Descending Indianapolis Center
Fri 09:39:07 AM 41.1308 -83.7233 333° Northwest 271 312 10,000 -1,683 Descending Cleveland Center
Fri 09:40:07 AM 41.1989 -83.7514 343° North 259 298 8,400 -1,650 Descending Cleveland Center
Fri 09:41:07 AM 41.2667 -83.7850 340° North 259 298 6,700 -1,550 Descending Cleveland Center
Fri 09:42:07 AM 41.3306 -83.8131 342° North 253 291 5,300 -1,350 Descending Cleveland Center
Fri 09:43:07 AM 41.3944 -83.8467 338° Northwest 258 297 4,000 2,850 Descending Cleveland Center
Fri 09:44:07 AM 41.4703 -83.8867 338° Northwest 258 297 11,000 7,000 Climbing Cleveland Center
Fri 09:46:00 AM 41.5833 -83.8000 323° Northwest  Level FlightAware Approximate
Fri 09:53:00 AM 41.5868 -83.8078 323° Northwest  Level Estimated
Fri 09:54:00 AM 41.5833 -83.8000 323° Northwest  Level FlightAware Approximate
Fri 09:55:00 AM 41.5868 -83.8078 323° Northwest  Level Estimated

Login

Don't have an account? Register now (free) for customized features, flight alerts, and more!